Bay City, Michigan
Current Conditions -  °F | °C
As of 2:53 AM on Monday 26 Jan 2015 (Local Time) from KMBS Reporting Station
Overcast Overcast  
Wind Chill:   Ceiling: 2100
Heat Index: 13°   Visibility: 10mi
Dew Point:   Wind: 6mph
Humidity: 81%   Direction: 360°N
Pressure: 30.01"   Gusts: NA
Location:  43.6°N, 83.88°W
Report Text: KMBS 260753Z 36005KT 10SM OVC021 M11/M13 A3001 RMK AO2 SLP173 T11061133
Loading
Personal Weather Stations






























Interactive Weather Map New forecast layout! Learn more

10-Day Weather Forecast

Advertisements
Track Severe Weather on mobile